CheckWX is a tool to help pilots better visualize weather data.  It is not intended as a substitute for an official pre-flight weather briefing.

04:43:18 UTC

VTUD TAF
Udon Thani Airport
Udon Thani, Thailand
TAF VTUD 222300Z 2300/2324 VRB02KT 5000 BR NSC BECMG 2302/2304 10006KT 8000 NSW FEW030 BECMG 2321/2323 VRB02KT 5000 BR NSC

Mar-23@
00:00 UTC

Mar-23 @ 00:00 UTC

Mar-23@
02:00 UTC

Mar-23 @ 02:00 UTC

TAF VTUD 222300Z 2300/2324 VRB02KT 5000 BR NSC

Expired

Wind
  • Variable at 2 KTS
Conditions
Mist
Cloud Levels
  • No significant clouds

Mar-23@
02:00 UTC

Mar-23 @ 02:00 UTC

Mar-23@
21:00 UTC

Mar-23 @ 21:00 UTC

BECMG 2302/2304 10006KT 8000 NSW FEW030

Becoming

Becoming Conditions expected by Sat, Mar 23, 2019 @ 04:00 UTC

Wind
  • 100° at 6 KTS
Conditions
No significant weather
Cloud Levels
  • Few at 3,000' AGL

Mar-23@
21:00 UTC

Mar-23 @ 21:00 UTC

Mar-24@
00:00 UTC

Mar-24 @ 00:00 UTC

BECMG 2321/2323 VRB02KT 5000 BR NSC

Becoming

Becoming Conditions expected by Sat, Mar 23, 2019 @ 23:00 UTC

Wind
  • Variable at 2 KTS
Conditions
Mist
Cloud Levels
  • No significant clouds